Naven, Sweden

8:43 PM CET on November 28, 2014 (GMT +0100)
Husaby | Change Station
CLOSE
Current Station
Personal Weather Station
Location: Husaby, VäSTRA GöTALANDS LäN
Elevation: 295 ft
Nearby Weather Stations

Elev 295 ft 58.53 °N, 13.38 °E | Updated 0 second ago

Overcast
Overcast
33.3 °F
Feels Like 30 °F
N
3.8
Wind Variable Wind from East
Gusts 4.5 mph

Today
High -- | Low -- °F
--% Chance of Precip.
Yesterday
High -- | Low -- °F
Precip. -- in
8:26 AM 3:24 PM
Waxing Crescent, 43% visible
Pressure 30.45 in
Visibility 6.2 miles
Clouds Overcast 2700 ft
Windchill 30 °F
Dew Point 26 °F
Humidity 73%
Rainfall 0.00 in
Snow Depth Not available.
UV 0 out of 12
Pollen Not available.
Air Quality Not available.
Flu Activity Not available.
METAR ESIB 281920Z AUTO 07006KT 9999NDV OVC027/// 01/M01 Q1031

More Conditions Fewer Conditions

Pressure 30.45 in
Visibility 6.2 miles
Clouds Overcast 2700 ft
Windchill 30 °F
Dew Point 26 °F
Humidity 73%
Rainfall 0.00 in
Snow Depth Not available.
UV 0 out of 12
Pollen Not available.
Air Quality Not available.
Flu Activity Not available.
METAR ESIB 281920Z AUTO 07006KT 9999NDV OVC027/// 01/M01 Q1031

More Conditions Fewer Conditions

10-Day Weather Forecast

Almanac

Astronomy

Nov. 28, 2014 Rise Set
Actual Time
Civil Twilight
Nautical Twilight
Astronomical Twilight
Moon
Length of Visible Light
Length of Day
Tomorrow will be .
, % of the Moon is Illuminated

Today's Extremes

Country Highs Country Lows

Community

WunderPhotos

Upload Photos

1,774,271 photos uploaded!

WunderBlogs® & News

Nearby

Air Quality

  Air Quality AQ Index Pollutant
Not available.

Snow Depth

Station Depth Elevation

Earthquake Activity

City Distance Mag. Time & Date
Minimum magnitude displayed is 2.5.

Coastal Water Temperatures

Place Temperature

Nearby Weather Stations